Monday, February 8, 2016, 1:42 PM EST

KJYO, Leesburg / Godfrey

Location: Leesburg, VA, United States Lat: 39.083
Local Time: 1:42 PM EST (18:42 GMT) Lon: -77.567
Time Zone: US/Eastern Elev: 390 ft

Show me the last for .
Show Decoded

2016-02-08 13:15 METAR KJYO 081815Z AUTO 00000KT 10SM CLR 08/M01 A2970 RMK AO2 =
2016-02-08 12:55 METAR KJYO 081755Z AUTO 22006KT 10SM CLR 08/M01 A2971 RMK AO2 =
2016-02-08 12:35 METAR KJYO 081735Z AUTO 16006KT 10SM CLR 07/M01 A2972 RMK AO2 =
2016-02-08 12:15 METAR KJYO 081715Z AUTO 14006KT 10SM CLR 07/M02 A2974 RMK AO2 =
2016-02-08 11:55 METAR KJYO 081655Z AUTO 00000KT 10SM CLR 07/M02 A2975 RMK AO2 =
2016-02-08 11:30 METAR KJYO 081630Z AUTO 00000KT 10SM CLR 06/M02 A2976 RMK AO2 =
2016-02-08 11:15 METAR KJYO 081615Z AUTO 13007KT 10SM CLR 06/M02 A2978 RMK AO2 =
2016-02-08 10:55 METAR KJYO 081555Z AUTO 11004KT 10SM CLR 06/M02 A2979 RMK AO2 =
2016-02-08 10:35 METAR KJYO 081535Z AUTO 08003KT 10SM CLR 06/M02 A2980 RMK AO2 =
2016-02-08 10:15 METAR KJYO 081515Z AUTO 12005KT 10SM CLR 06/M02 A2980 RMK AO2 =
2016-02-08 09:50 METAR KJYO 081450Z AUTO 06004KT 10SM CLR 05/M02 A2980 RMK AO2 =
2016-02-08 09:35 METAR KJYO 081435Z AUTO 06003KT 10SM CLR 05/M02 A2980 RMK AO2 =
2016-02-08 09:15 METAR KJYO 081415Z AUTO 00000KT 10SM CLR 03/M02 A2980 RMK AO2 =
2016-02-08 08:55 METAR KJYO 081355Z AUTO 00000KT 10SM CLR 02/M02 A2981 RMK AO2 =
2016-02-08 08:35 METAR KJYO 081335Z AUTO 00000KT 10SM CLR 02/M02 A2981 RMK AO2 =
2016-02-08 08:15 METAR KJYO 081315Z AUTO 00000KT 10SM CLR 01/M02 A2981 RMK AO2 =
2016-02-08 07:55 METAR KJYO 081255Z AUTO 00000KT 10SM CLR 00/M02 A2982 RMK AO2 =
2016-02-08 07:35 METAR KJYO 081235Z AUTO 00000KT 10SM CLR M01/M03 A2982 RMK AO2 =
2016-02-08 07:15 METAR KJYO 081215Z AUTO 33003KT 10SM CLR 00/M03 A2982 RMK AO2 =
2016-02-08 06:55 METAR KJYO 081155Z AUTO 34003KT 10SM CLR 00/M03 A2982 RMK AO2 =
2016-02-08 06:35 METAR KJYO 081135Z AUTO 35005KT 10SM CLR 00/M03 A2982 RMK AO2 =
2016-02-08 06:15 METAR KJYO 081115Z AUTO 33006KT 10SM CLR 00/M03 A2982 RMK AO2 =
2016-02-08 05:55 METAR KJYO 081055Z AUTO 32005KT 10SM CLR 00/M03 A2981 RMK AO2 =
2016-02-08 05:35 METAR KJYO 081035Z AUTO 33006KT 10SM CLR 00/M03 A2980 RMK AO2 =
2016-02-08 05:15 METAR KJYO 081015Z AUTO 32004KT 10SM CLR 00/M03 A2979 RMK AO2 =
2016-02-08 04:55 METAR KJYO 080955Z AUTO 34005KT 10SM CLR 00/M03 A2979 RMK AO2 =
2016-02-08 04:35 METAR KJYO 080935Z AUTO 34004KT 10SM CLR 00/M03 A2980 RMK AO2 =
2016-02-08 04:15 METAR KJYO 080915Z AUTO 34005KT 10SM CLR 00/M03 A2980 RMK AO2 =
2016-02-08 03:55 METAR KJYO 080855Z AUTO 33005KT 10SM CLR 00/M03 A2979 RMK AO2 =
2016-02-08 03:35 METAR KJYO 080835Z AUTO 34004KT 10SM CLR 00/M03 A2979 RMK AO2 =
2016-02-08 03:15 METAR KJYO 080815Z AUTO 34006KT 10SM CLR 01/M03 A2979 RMK AO2 =
2016-02-08 02:55 METAR KJYO 080755Z AUTO 33005KT 10SM CLR 01/M03 A2980 RMK AO2 =
2016-02-08 02:35 METAR KJYO 080735Z AUTO 33006KT 10SM CLR 00/M02 A2980 RMK AO2 =
2016-02-08 02:15 METAR KJYO 080715Z AUTO 35006KT 10SM CLR 01/M03 A2981 RMK AO2 =
2016-02-08 01:50 METAR KJYO 080650Z AUTO 36006KT 10SM CLR 00/M02 A2983 RMK AO2 =
2016-02-08 01:35 METAR KJYO 080635Z AUTO 36006KT 10SM CLR 00/M02 A2984 RMK AO2 =
2016-02-08 01:15 METAR KJYO 080615Z AUTO 01004KT 10SM CLR 01/M03 A2984 RMK AO2 =
2016-02-08 00:55 METAR KJYO 080555Z AUTO 01005KT 10SM CLR 01/M02 A2985 RMK AO2 =
2016-02-08 00:35 METAR KJYO 080535Z AUTO 36005KT 10SM CLR 01/M02 A2986 RMK AO2 =
2016-02-08 00:15 METAR KJYO 080515Z AUTO 35005KT 10SM CLR 01/M03 A2986 RMK AO2 =
2016-02-07 23:55 METAR KJYO 080455Z AUTO 01006KT 10SM CLR 02/M02 A2987 RMK AO2 =
2016-02-07 23:35 METAR KJYO 080435Z AUTO 36005KT 10SM CLR 02/M02 A2987 RMK AO2 =
2016-02-07 23:15 METAR KJYO 080415Z AUTO 02005KT 10SM CLR 03/M03 A2988 RMK AO2 =
2016-02-07 22:55 METAR KJYO 080355Z AUTO 03005KT 10SM CLR 03/M03 A2989 RMK AO2 =
2016-02-07 22:35 METAR KJYO 080335Z AUTO 03008KT 10SM CLR 03/M03 A2990 RMK AO2 =
2016-02-07 22:15 METAR KJYO 080315Z AUTO 01005KT 10SM CLR 03/M02 A2991 RMK AO2 =
2016-02-07 21:55 METAR KJYO 080255Z AUTO 01006KT 10SM CLR 02/M02 A2992 RMK AO2 =
2016-02-07 21:35 METAR KJYO 080235Z AUTO 36006KT 10SM CLR 02/M02 A2992 RMK AO2 =
2016-02-07 21:15 METAR KJYO 080215Z AUTO 02004KT 10SM CLR 03/M02 A2993 RMK AO2 =
2016-02-07 20:55 METAR KJYO 080155Z AUTO 02005KT 10SM CLR 04/M03 A2994 RMK AO2 =
2016-02-07 20:35 METAR KJYO 080135Z AUTO 02004KT 10SM CLR 03/M02 A2995 RMK AO2 =
2016-02-07 20:15 METAR KJYO 080115Z AUTO 36005KT 10SM CLR 03/M02 A2996 RMK AO2 =
2016-02-07 19:55 METAR KJYO 080055Z AUTO 35005KT 10SM CLR 03/M02 A2996 RMK AO2 =
2016-02-07 19:35 METAR KJYO 080035Z AUTO 35005KT 10SM CLR 03/M02 A2996 RMK AO2 =
2016-02-07 19:15 METAR KJYO 080015Z AUTO 36005KT 10SM CLR 03/M02 A2996 RMK AO2 =
2016-02-07 18:55 METAR KJYO 072355Z AUTO 36005KT 10SM CLR 05/M03 A2997 RMK AO2 =
2016-02-07 18:35 METAR KJYO 072335Z AUTO 01004KT 10SM CLR 05/M03 A2998 RMK AO2 =
2016-02-07 18:15 METAR KJYO 072315Z AUTO 36003KT 10SM CLR 05/M03 A2997 RMK AO2 =
2016-02-07 17:55 METAR KJYO 072255Z AUTO 02003KT 10SM CLR 06/M03 A2997 RMK AO2 =
2016-02-07 17:35 METAR KJYO 072235Z AUTO 02003KT 10SM CLR 06/M03 A2998 RMK AO2 =
2016-02-07 17:15 METAR KJYO 072215Z AUTO 01003KT 10SM CLR 06/M03 A2998 RMK AO2 =
2016-02-07 16:55 METAR KJYO 072155Z AUTO 36004KT 10SM CLR 07/M03 A2999 RMK AO2 =
2016-02-07 16:35 METAR KJYO 072135Z AUTO 03005KT 10SM CLR 07/M03 A2999 RMK AO2 =
2016-02-07 16:15 METAR KJYO 072115Z AUTO 03003KT 10SM CLR 07/M03 A3000 RMK AO2 =
2016-02-07 15:55 METAR KJYO 072055Z AUTO 04006KT 10SM CLR 07/M03 A3000 RMK AO2 =
2016-02-07 15:35 METAR KJYO 072035Z AUTO 03007KT 10SM CLR 07/M03 A3001 RMK AO2 =
2016-02-07 15:15 METAR KJYO 072015Z AUTO 03006KT 10SM CLR 07/M04 A3002 RMK AO2 =
2016-02-07 14:55 METAR KJYO 071955Z AUTO 02007KT 10SM CLR 07/M05 A3003 RMK AO2 =
2016-02-07 14:35 METAR KJYO 071935Z AUTO 02008KT 10SM CLR 07/M05 A3004 RMK AO2 =
2016-02-07 14:15 METAR KJYO 071915Z AUTO 01007KT 10SM CLR 07/M05 A3005 RMK AO2 =
2016-02-07 13:55 METAR KJYO 071855Z AUTO 36003KT 10SM CLR 07/M04 A3007 RMK AO2 =

Support USWX by starting your Amazon purchase here.